Time;durP1;ratioP1;P1;durP2;ratioP2;P2;SDS_P1;SDS_P2;PMS_P1;PMS_P2;Temp;Humidity;BMP_temperature;BMP_pressure;BME280_temperature;BME280_humidity;BME280_pressure;Samples;Min_cycle;Max_cycle;Signal;HPM_P1;HPM_P2
2023/10/17 00:00:39;;;;;;;7.63;4.97;;;9.20;99.60;;;;;;5071431;28;20059;-74
2023/10/17 00:03:25;;;;;;;8.30;4.25;;;9.30;99.70;;;;;;5079052;28;20051;-75
2023/10/17 00:06:17;;;;;;;8.05;4.53;;;9.30;99.80;;;;;;5069790;28;20374;-75
2023/10/17 00:09:07;;;;;;;8.57;5.13;;;9.30;99.80;;;;;;5062734;28;20032;-75
2023/10/17 00:14:45;;;;;;;8.93;5.30;;;9.30;99.90;;;;;;5070640;28;20049;-74
2023/10/17 00:17:33;;;;;;;8.10;4.90;;;9.30;99.90;;;;;;5078944;28;20540;-75
2023/10/17 00:20:24;;;;;;;8.23;5.20;;;9.40;99.90;;;;;;5084343;28;20046;-70
2023/10/17 00:23:20;;;;;;;8.95;4.80;;;9.40;99.90;;;;;;5063514;28;20090;-70
2023/10/17 00:26:09;;;;;;;13.30;5.97;;;9.40;99.90;;;;;;5070609;28;20477;-70
2023/10/17 00:28:55;;;;;;;6.85;4.65;;;9.40;99.90;;;;;;5068730;28;20064;-69
2023/10/17 00:31:43;;;;;;;13.18;5.75;;;9.40;99.90;;;;;;5054974;28;20524;-69
2023/10/17 00:34:29;;;;;;;12.02;4.95;;;9.40;99.90;;;;;;5067123;28;20118;-70
2023/10/17 00:37:16;;;;;;;8.25;4.68;;;9.40;99.90;;;;;;5109652;28;20054;-69
2023/10/17 00:40:05;;;;;;;9.50;4.47;;;9.40;99.90;;;;;;5094676;28;20031;-70
2023/10/17 00:42:51;;;;;;;7.93;5.63;;;9.40;99.90;;;;;;5077125;28;20068;-71
2023/10/17 00:45:38;;;;;;;9.23;5.28;;;9.40;99.90;;;;;;5075252;28;20039;-70
2023/10/17 00:48:26;;;;;;;6.60;4.72;;;9.50;99.90;;;;;;5086658;28;20036;-70
2023/10/17 00:51:12;;;;;;;9.43;5.30;;;9.50;99.90;;;;;;5069513;28;20358;-70
2023/10/17 00:54:00;;;;;;;9.65;5.05;;;9.50;99.90;;;;;;5070141;28;20433;-69
2023/10/17 00:56:47;;;;;;;9.88;6.57;;;9.50;99.90;;;;;;5069776;28;20036;-69
2023/10/17 00:59:33;;;;;;;10.60;5.75;;;9.50;99.90;;;;;;5069609;28;20165;-70
2023/10/17 01:02:22;;;;;;;9.60;5.78;;;9.50;99.90;;;;;;5082917;28;20039;-70
2023/10/17 01:05:11;;;;;;;9.75;5.47;;;9.50;99.90;;;;;;5077207;28;20449;-70
2023/10/17 01:07:57;;;;;;;9.95;6.05;;;9.50;99.90;;;;;;5069991;28;20029;-70
2023/10/17 01:10:44;;;;;;;9.65;5.53;;;9.50;99.90;;;;;;5069392;28;20040;-70
2023/10/17 01:13:30;;;;;;;11.55;5.95;;;9.50;99.90;;;;;;5068694;28;20056;-70
2023/10/17 01:16:16;;;;;;;10.10;5.88;;;9.50;99.90;;;;;;5072515;28;20485;-70
2023/10/17 01:19:08;;;;;;;11.52;6.13;;;9.50;99.90;;;;;;5054144;28;20031;-70
2023/10/17 01:21:56;;;;;;;7.47;5.45;;;9.50;99.90;;;;;;5080757;28;20508;-70
2023/10/17 01:24:42;;;;;;;9.68;6.50;;;9.60;99.90;;;;;;5069353;28;20040;-71
2023/10/17 01:27:28;;;;;;;8.75;5.93;;;9.50;99.90;;;;;;5065809;28;20107;-71
2023/10/17 01:30:16;;;;;;;9.38;5.85;;;9.50;99.90;;;;;;5088436;28;20067;-71
2023/10/17 01:33:03;;;;;;;7.85;5.32;;;9.50;99.90;;;;;;5086559;28;20020;-71
2023/10/17 01:35:48;;;;;;;8.50;6.07;;;9.50;99.90;;;;;;5071369;28;20029;-71
2023/10/17 01:38:34;;;;;;;10.88;6.68;;;9.60;99.90;;;;;;5081347;28;20031;-71
2023/10/17 01:41:21;;;;;;;7.85;6.13;;;9.50;99.90;;;;;;5067974;28;20035;-69
2023/10/17 01:44:08;;;;;;;9.05;5.80;;;9.50;99.90;;;;;;5069962;28;20048;-70
2023/10/17 01:46:54;;;;;;;10.63;6.55;;;9.60;99.90;;;;;;5069856;28;20043;-69
2023/10/17 01:49:40;;;;;;;7.00;5.03;;;9.60;99.90;;;;;;5081355;28;20028;-70
2023/10/17 01:52:27;;;;;;;8.23;5.43;;;9.60;99.90;;;;;;5076204;28;20035;-70
2023/10/17 01:55:15;;;;;;;8.85;5.57;;;9.60;99.90;;;;;;5079959;28;20399;-70
2023/10/17 01:58:07;;;;;;;7.15;4.75;;;9.60;99.90;;;;;;5082020;28;20039;-71
2023/10/17 02:00:55;;;;;;;8.20;4.88;;;9.70;99.90;;;;;;5054171;28;20072;-71
2023/10/17 02:03:41;;;;;;;7.55;5.03;;;9.60;99.90;;;;;;5068383;28;20044;-71
2023/10/17 02:06:28;;;;;;;7.70;4.90;;;9.60;99.90;;;;;;5079624;28;20039;-70
2023/10/17 02:12:14;;;;;;;6.72;4.32;;;9.60;99.90;;;;;;5086743;28;20115;-69
2023/10/17 02:15:00;;;;;;;7.72;4.90;;;9.60;99.90;;;;;;5090586;28;20044;-70
2023/10/17 02:17:47;;;;;;;6.03;4.43;;;9.60;99.90;;;;;;5076067;28;20120;-70
2023/10/17 02:20:36;;;;;;;7.03;4.88;;;9.60;99.90;;;;;;5069937;28;20405;-70
2023/10/17 02:23:25;;;;;;;7.22;4.90;;;9.60;99.90;;;;;;5071901;28;20029;-70
2023/10/17 02:26:11;;;;;;;6.22;4.75;;;9.60;99.90;;;;;;5071625;28;20401;-71
2023/10/17 02:29:05;;;;;;;10.35;5.25;;;9.60;99.90;;;;;;5075371;28;20024;-69
2023/10/17 02:31:52;;;;;;;6.13;4.78;;;9.60;99.90;;;;;;5060912;28;20040;-70
2023/10/17 02:34:38;;;;;;;6.25;4.00;;;9.60;99.90;;;;;;5057615;28;20039;-70
2023/10/17 02:37:29;;;;;;;6.75;4.82;;;9.50;99.90;;;;;;5069808;28;20443;-69
2023/10/17 02:40:23;;;;;;;6.13;4.57;;;9.60;99.90;;;;;;5071457;28;20033;-70
2023/10/17 02:43:12;;;;;;;6.18;4.05;;;9.60;99.90;;;;;;5069918;28;20036;-70
2023/10/17 02:46:04;;;;;;;7.38;4.80;;;9.60;99.90;;;;;;5071977;28;20028;-70
2023/10/17 02:48:51;;;;;;;6.85;4.20;;;9.60;99.90;;;;;;5078424;28;20571;-70
2023/10/17 02:51:38;;;;;;;8.82;4.28;;;9.70;99.90;;;;;;5084444;28;20098;-70
2023/10/17 02:54:27;;;;;;;8.30;4.53;;;9.70;99.90;;;;;;5082772;28;20051;-70
2023/10/17 02:57:13;;;;;;;6.40;3.88;;;9.70;99.90;;;;;;5085011;28;20039;-70
2023/10/17 03:00:19;;;;;;;6.07;4.10;;;9.80;99.90;;;;;;5081266;28;20386;-70
2023/10/17 03:03:14;;;;;;;7.80;4.40;;;9.70;99.90;;;;;;5070561;28;20397;-70
2023/10/17 03:06:00;;;;;;;5.63;3.63;;;9.70;99.90;;;;;;5077621;28;20184;-71
2023/10/17 03:09:01;;;;;;;6.00;3.85;;;9.70;99.90;;;;;;5091166;28;20031;-71
2023/10/17 03:17:31;;;;;;;6.63;3.92;;;9.80;99.90;;;;;;5081385;28;20400;-72
2023/10/17 03:20:17;;;;;;;5.88;4.50;;;9.80;99.90;;;;;;5088553;28;20072;-71
2023/10/17 03:23:08;;;;;;;5.50;3.55;;;9.80;99.90;;;;;;5084778;28;20028;-70
2023/10/17 03:26:03;;;;;;;7.32;3.45;;;9.80;99.90;;;;;;5085736;28;20500;-71
2023/10/17 03:28:50;;;;;;;6.22;3.92;;;9.80;99.90;;;;;;5089262;28;20028;-70
2023/10/17 03:31:38;;;;;;;6.70;4.20;;;9.90;99.90;;;;;;5084159;28;20062;-70
2023/10/17 03:34:35;;;;;;;5.20;3.58;;;9.80;99.90;;;;;;5070280;28;20055;-70
2023/10/17 03:40:17;;;;;;;6.88;4.25;;;9.90;99.90;;;;;;5086021;28;20020;-71
2023/10/17 03:43:12;;;;;;;7.05;3.60;;;9.80;99.90;;;;;;5080179;28;20042;-71
2023/10/17 03:45:59;;;;;;;6.45;3.88;;;9.80;99.90;;;;;;5089365;28;20040;-70
2023/10/17 03:49:06;;;;;;;5.15;3.78;;;9.90;99.90;;;;;;5088351;28;20035;-70
2023/10/17 03:51:52;;;;;;;6.07;3.80;;;9.90;99.90;;;;;;5087281;28;20028;-71
2023/10/17 03:54:38;;;;;;;5.63;3.75;;;9.90;99.90;;;;;;5070750;28;20035;-71
2023/10/17 03:57:27;;;;;;;6.15;4.10;;;9.90;99.90;;;;;;5069838;28;20056;-70
2023/10/17 04:00:28;;;;;;;6.00;4.10;;;9.90;99.90;;;;;;5067682;28;20033;-71
2023/10/17 04:03:23;;;;;;;5.47;3.83;;;9.90;99.90;;;;;;5070708;28;20032;-70
2023/10/17 04:12:03;;;;;;;5.93;3.53;;;9.90;99.90;;;;;;5087257;28;20565;-70
2023/10/17 04:14:58;;;;;;;5.32;3.15;;;9.90;99.90;;;;;;5095758;28;20051;-70
2023/10/17 04:17:49;;;;;;;5.88;3.70;;;9.90;99.90;;;;;;5087855;28;20054;-70
2023/10/17 04:20:36;;;;;;;6.20;3.83;;;10.00;99.90;;;;;;5078395;28;20066;-70
2023/10/17 04:23:26;;;;;;;5.63;3.90;;;10.00;99.90;;;;;;5087124;28;20063;-70
2023/10/17 04:26:18;;;;;;;5.47;3.83;;;10.00;99.90;;;;;;5072270;28;20036;-71
2023/10/17 04:29:13;;;;;;;5.75;3.72;;;10.00;99.90;;;;;;5083311;28;20039;-70
2023/10/17 04:32:01;;;;;;;5.05;3.38;;;10.00;99.90;;;;;;5088825;28;20047;-70
2023/10/17 04:34:48;;;;;;;6.13;4.03;;;10.00;99.90;;;;;;5081602;28;20129;-71
2023/10/17 04:37:37;;;;;;;7.28;3.97;;;10.00;99.90;;;;;;5087580;28;20058;-76
2023/10/17 04:40:37;;;;;;;5.35;3.60;;;10.10;99.90;;;;;;5089720;28;20027;-75
2023/10/17 04:43:44;;;;;;;8.82;3.65;;;10.10;99.90;;;;;;5087810;28;20024;-76
2023/10/17 04:46:33;;;;;;;5.65;4.03;;;10.10;99.90;;;;;;5077975;28;20039;-76
2023/10/17 04:49:21;;;;;;;6.03;3.67;;;10.10;99.90;;;;;;5094698;27;20071;-76
2023/10/17 04:52:13;;;;;;;8.75;4.20;;;10.10;99.90;;;;;;5088739;28;20028;-75
2023/10/17 04:55:09;;;;;;;6.88;4.05;;;10.10;99.90;;;;;;5081334;28;20127;-76
2023/10/17 04:57:58;;;;;;;7.95;3.75;;;10.20;99.90;;;;;;5070442;28;20079;-69
2023/10/17 05:03:46;;;;;;;6.13;3.80;;;10.10;99.90;;;;;;5087969;28;20067;-72
2023/10/17 05:07:27;;;;;;;6.90;4.32;;;10.10;99.90;;;;;;5068695;28;20047;-73
2023/10/17 06:17:27;;;;;;;8.85;5.45;;;10.70;99.90;;;;;;4976380;28;20043;-70
2023/10/17 06:20:16;;;;;;;8.63;4.88;;;10.80;99.90;;;;;;4987201;28;20042;-70
2023/10/17 06:32:16;;;;;;;6.82;3.50;;;11.00;99.90;;;;;;4931087;28;20504;-66
2023/10/17 06:35:20;;;;;;;9.55;4.75;;;11.00;99.90;;;;;;4952966;28;20583;-68
2023/10/17 06:38:07;;;;;;;6.55;3.83;;;11.00;99.90;;;;;;4988324;28;20046;-69
2023/10/17 06:41:12;;;;;;;4.75;3.28;;;11.10;99.90;;;;;;4988833;28;20109;-68
2023/10/17 06:43:58;;;;;;;6.63;3.70;;;11.10;99.90;;;;;;4972459;28;20043;-68
2023/10/17 06:46:55;;;;;;;6.25;3.75;;;11.10;99.90;;;;;;4994947;28;20761;-68
2023/10/17 06:52:39;;;;;;;6.25;3.67;;;11.20;99.90;;;;;;4972950;28;20031;-68
2023/10/17 06:55:28;;;;;;;7.72;3.97;;;11.20;99.90;;;;;;4976813;28;20050;-69
2023/10/17 06:58:15;;;;;;;8.55;4.05;;;11.20;99.90;;;;;;5007458;28;20455;-68
2023/10/17 07:01:04;;;;;;;9.20;3.55;;;11.30;99.90;;;;;;4999085;28;20815;-68
2023/10/17 07:03:56;;;;;;;11.50;4.22;;;11.40;99.90;;;;;;5079441;28;20493;-66
2023/10/17 07:06:42;;;;;;;7.95;4.07;;;11.50;99.90;;;;;;5058408;28;20021;-69
2023/10/17 07:09:30;;;;;;;6.85;3.67;;;11.60;99.90;;;;;;5073171;28;20043;-65
2023/10/17 07:12:16;;;;;;;6.75;3.47;;;11.60;99.90;;;;;;5072569;28;20048;-65
2023/10/17 07:15:09;;;;;;;7.30;3.38;;;11.70;99.90;;;;;;5095040;28;20067;-65
2023/10/17 07:18:39;;;;;;;5.57;3.25;;;11.70;99.90;;;;;;5093882;28;20019;-66
2023/10/17 07:24:06;;;;;;;5.75;2.90;;;11.70;99.90;;;;;;5070885;28;19920;-64
2023/10/17 07:26:53;;;;;;;5.20;3.00;;;11.70;99.90;;;;;;5074615;28;20077;-65
2023/10/17 07:29:45;;;;;;;6.68;3.53;;;11.80;99.90;;;;;;5084214;28;20521;-65
2023/10/17 07:32:44;;;;;;;5.13;2.80;;;11.80;99.90;;;;;;5086452;28;20473;-65
2023/10/17 07:35:30;;;;;;;4.90;2.80;;;11.80;99.90;;;;;;5070838;28;20055;-65
2023/10/17 07:38:16;;;;;;;5.03;3.08;;;11.90;99.90;;;;;;5072453;28;20036;-65
2023/10/17 07:41:13;;;;;;;4.53;2.92;;;11.90;99.90;;;;;;5068861;28;20072;-65
2023/10/17 07:44:08;;;;;;;6.45;3.00;;;12.00;99.90;;;;;;5074147;28;20505;-65
2023/10/17 07:49:52;;;;;;;5.45;2.83;;;12.10;99.90;;;;;;5081153;28;20064;-65
2023/10/17 07:52:49;;;;;;;9.63;6.53;;;12.10;99.90;;;;;;5071528;28;20040;-65
2023/10/17 07:55:38;;;;;;;10.95;7.30;;;12.20;99.90;;;;;;5070991;28;20028;-70
2023/10/17 07:58:39;;;;;;;12.73;8.68;;;12.20;99.80;;;;;;5071328;28;20138;-70
2023/10/17 08:01:41;;;;;;;8.10;5.40;;;12.30;99.70;;;;;;5081584;28;20526;-71
2023/10/17 08:04:30;;;;;;;9.68;4.57;;;12.30;99.70;;;;;;5075049;28;20493;-70
2023/10/17 08:07:20;;;;;;;6.75;4.47;;;12.30;99.60;;;;;;5068698;28;20060;-72
2023/10/17 08:10:10;;;;;;;9.73;3.70;;;12.30;99.60;;;;;;5071160;28;20036;-71
2023/10/17 08:13:01;;;;;;;7.13;2.97;;;12.30;99.60;;;;;;5072475;28;20457;-70
2023/10/17 08:15:52;;;;;;;8.18;4.10;;;12.40;99.50;;;;;;5069723;28;20048;-70
2023/10/17 08:18:41;;;;;;;6.00;3.30;;;12.50;99.40;;;;;;5071532;28;20040;-70
2023/10/17 08:21:34;;;;;;;5.72;3.60;;;12.50;99.20;;;;;;5071053;28;20390;-69
2023/10/17 08:30:23;;;;;;;8.10;3.78;;;12.60;98.90;;;;;;5068197;28;20465;-70
2023/10/17 08:33:13;;;;;;;9.43;4.97;;;12.60;98.90;;;;;;5072736;28;20047;-71
2023/10/17 08:36:01;;;;;;;10.10;3.78;;;12.60;98.80;;;;;;5078411;28;20519;-71
2023/10/17 08:38:47;;;;;;;6.38;3.97;;;12.60;98.90;;;;;;5083286;28;20089;-70
2023/10/17 08:41:36;;;;;;;10.65;3.72;;;12.60;99.00;;;;;;5096936;27;20036;-71
2023/10/17 08:44:28;;;;;;;11.27;5.45;;;12.60;98.80;;;;;;5074782;28;20132;-71
2023/10/17 08:47:18;;;;;;;17.08;10.70;;;12.60;98.70;;;;;;5077671;28;20024;-70
2023/10/17 08:50:04;;;;;;;10.52;6.57;;;12.60;98.60;;;;;;5088481;28;20321;-70
2023/10/17 08:52:51;;;;;;;6.47;4.43;;;12.60;98.50;;;;;;5088826;28;20036;-70
2023/10/17 08:55:40;;;;;;;7.03;3.42;;;12.70;98.40;;;;;;5088815;28;20223;-70
2023/10/17 08:58:32;;;;;;;6.45;3.00;;;12.70;98.10;;;;;;5070733;28;20082;-71
2023/10/17 09:01:20;;;;;;;8.02;3.35;;;12.70;97.90;;;;;;5069581;28;20122;-70
2023/10/17 09:04:09;;;;;;;6.35;3.13;;;12.80;98.00;;;;;;5067209;28;20032;-70
2023/10/17 09:06:59;;;;;;;7.43;3.15;;;12.90;98.10;;;;;;5069010;28;20075;-70
2023/10/17 09:09:54;;;;;;;5.82;3.00;;;12.90;98.00;;;;;;5068927;28;20087;-70
2023/10/17 09:12:43;;;;;;;4.50;2.60;;;13.00;97.90;;;;;;5054197;28;20037;-70
2023/10/17 09:15:39;;;;;;;7.22;2.40;;;13.00;97.90;;;;;;5068170;28;20048;-70
2023/10/17 09:18:31;;;;;;;4.70;1.80;;;13.10;97.40;;;;;;5069054;28;20033;-70
2023/10/17 09:21:20;;;;;;;3.85;1.80;;;13.00;96.70;;;;;;5072757;28;20436;-71
2023/10/17 09:24:07;;;;;;;2.38;1.20;;;13.00;96.20;;;;;;5073260;28;20512;-71
2023/10/17 09:26:56;;;;;;;10.55;4.82;;;13.00;95.80;;;;;;5096236;28;20043;-71
2023/10/17 09:29:43;;;;;;;3.85;2.05;;;13.10;95.40;;;;;;5077722;28;20473;-70
2023/10/17 09:32:37;;;;;;;4.50;2.42;;;13.10;94.90;;;;;;5073380;28;20029;-70
2023/10/17 09:35:23;;;;;;;3.47;2.25;;;13.10;94.90;;;;;;5074494;28;20036;-70
2023/10/17 09:38:11;;;;;;;5.88;2.15;;;13.20;94.60;;;;;;5073689;28;20091;-70
2023/10/17 09:40:59;;;;;;;4.50;2.85;;;13.30;94.40;;;;;;5072641;28;20147;-70
2023/10/17 09:43:46;;;;;;;6.43;2.58;;;13.30;94.60;;;;;;5091874;28;20039;-71
2023/10/17 09:46:33;;;;;;;3.30;2.13;;;13.50;94.50;;;;;;5093192;28;20032;-70
2023/10/17 09:49:24;;;;;;;3.22;1.48;;;13.50;94.10;;;;;;5061295;28;20588;-71
2023/10/17 09:52:11;;;;;;;3.95;1.50;;;13.60;93.50;;;;;;5073013;28;20039;-71
2023/10/17 09:55:00;;;;;;;2.55;1.00;;;13.60;93.50;;;;;;5071274;28;20036;-71
2023/10/17 09:57:54;;;;;;;4.03;1.60;;;13.70;93.30;;;;;;5072616;28;20486;-72
2023/10/17 10:00:46;;;;;;;4.18;1.60;;;13.80;93.50;;;;;;5072389;28;20029;-70
2023/10/17 10:03:35;;;;;;;3.53;1.80;;;13.80;93.40;;;;;;5072210;28;20266;-70
2023/10/17 10:06:25;;;;;;;5.45;1.52;;;13.80;93.10;;;;;;5072106;28;20106;-71
2023/10/17 10:09:14;;;;;;;3.50;1.73;;;13.90;93.00;;;;;;5073935;28;20028;-70
2023/10/17 10:12:01;;;;;;;3.15;1.42;;;13.90;92.80;;;;;;5072347;28;20047;-71
2023/10/17 10:14:49;;;;;;;3.70;1.55;;;13.90;92.70;;;;;;5072325;28;20056;-71
2023/10/17 10:17:46;;;;;;;2.22;1.25;;;13.90;92.40;;;;;;5072225;28;20040;-71
2023/10/17 10:20:55;;;;;;;5.50;1.40;;;13.90;92.20;;;;;;5072200;28;20339;-71
2023/10/17 10:23:42;;;;;;;0.88;0.60;;;13.90;91.80;;;;;;5071580;28;20037;-71
2023/10/17 10:26:28;;;;;;;3.75;1.40;;;13.90;91.50;;;;;;5072772;28;20119;-71
2023/10/17 10:29:23;;;;;;;3.13;1.27;;;13.90;91.70;;;;;;5086403;28;20039;-71
2023/10/17 10:32:24;;;;;;;;;;;13.90;91.30;;;;;;5071660;28;20037;-71
2023/10/17 10:35:11;;;;;;;4.40;1.45;;;14.00;92.00;;;;;;5070561;28;19904;-70
2023/10/17 10:37:59;;;;;;;3.13;1.48;;;13.90;91.90;;;;;;5071250;28;20036;-71
2023/10/17 10:40:45;;;;;;;7.97;4.00;;;14.00;92.00;;;;;;5072100;28;20063;-71
2023/10/17 10:43:31;;;;;;;5.72;2.45;;;14.00;91.80;;;;;;5063407;28;20031;-71
2023/10/17 10:46:17;;;;;;;8.52;4.10;;;14.00;91.10;;;;;;5083213;28;20386;-71
2023/10/17 10:49:05;;;;;;;14.15;8.05;;;14.10;91.00;;;;;;5080225;28;20400;-71
2023/10/17 10:51:52;;;;;;;18.48;9.65;;;14.10;91.00;;;;;;5077242;28;20024;-71
2023/10/17 10:54:54;;;;;;;11.77;5.20;;;14.10;91.10;;;;;;5091900;28;20122;-71
2023/10/17 10:57:40;;;;;;;8.93;4.30;;;14.20;91.10;;;;;;5091626;28;20028;-69
2023/10/17 11:00:25;;;;;;;12.18;6.60;;;14.10;91.10;;;;;;5090701;28;20272;-70
2023/10/17 11:03:12;;;;;;;13.95;6.75;;;14.20;91.30;;;;;;5091515;28;20408;-71
2023/10/17 11:06:03;;;;;;;6.78;2.45;;;14.20;91.20;;;;;;5090614;28;20136;-71
2023/10/17 11:08:49;;;;;;;11.43;2.15;;;14.20;91.20;;;;;;5090339;28;20452;-71
2023/10/17 11:11:49;;;;;;;7.10;1.90;;;14.20;91.40;;;;;;5096931;28;20403;-70
2023/10/17 11:14:35;;;;;;;3.78;2.13;;;14.20;91.40;;;;;;5091904;28;20055;-71
2023/10/17 11:17:26;;;;;;;4.82;2.55;;;14.20;91.40;;;;;;5090520;28;20036;-71
2023/10/17 11:20:21;;;;;;;20.48;12.52;;;14.20;91.60;;;;;;5075572;28;20070;-71
2023/10/17 11:23:12;;;;;;;6.35;3.45;;;14.20;91.70;;;;;;5090540;28;20485;-71
2023/10/17 11:26:02;;;;;;;4.22;2.60;;;14.20;91.40;;;;;;5080601;28;20044;-71
2023/10/17 11:28:51;;;;;;;5.75;2.10;;;14.30;91.30;;;;;;5070806;28;20461;-71
2023/10/17 11:31:41;;;;;;;6.25;2.72;;;14.30;91.00;;;;;;5070625;28;20457;-71
2023/10/17 11:34:31;;;;;;;3.10;1.73;;;14.30;90.90;;;;;;5070720;28;20498;-71
2023/10/17 11:37:21;;;;;;;5.65;2.35;;;14.30;90.70;;;;;;5098960;28;20070;-70
2023/10/17 11:40:26;;;;;;;3.55;1.85;;;14.30;90.50;;;;;;5098968;28;20028;-70
2023/10/17 11:43:17;;;;;;;4.90;1.92;;;14.30;90.30;;;;;;5107957;28;20111;-71
2023/10/17 11:46:04;;;;;;;4.53;1.90;;;14.40;90.40;;;;;;5078232;28;20401;-71
2023/10/17 11:48:54;;;;;;;6.72;3.50;;;14.40;90.40;;;;;;5089864;28;20020;-71
2023/10/17 11:51:40;;;;;;;4.90;2.75;;;14.30;90.40;;;;;;5074370;28;20032;-71
2023/10/17 11:54:26;;;;;;;6.28;3.80;;;14.30;90.30;;;;;;5069934;28;20054;-71
2023/10/17 11:57:13;;;;;;;10.77;6.03;;;14.30;90.20;;;;;;5071041;28;20189;-71
2023/10/17 12:00:06;;;;;;;9.50;3.75;;;14.40;90.20;;;;;;5070552;28;20388;-70
2023/10/17 12:02:52;;;;;;;7.65;2.20;;;14.40;90.10;;;;;;5069857;28;20496;-71
2023/10/17 12:05:38;;;;;;;4.50;1.85;;;14.40;90.10;;;;;;5072037;28;21121;-71
2023/10/17 12:08:29;;;;;;;3.42;1.70;;;14.40;89.90;;;;;;5065100;28;20038;-71
2023/10/17 12:11:15;;;;;;;6.03;2.60;;;14.40;89.80;;;;;;5090832;28;20492;-71
2023/10/17 12:14:01;;;;;;;2.63;1.25;;;14.50;90.00;;;;;;5073593;28;20060;-71
2023/10/17 12:16:48;;;;;;;3.63;1.50;;;14.50;89.30;;;;;;5074577;28;20036;-72
2023/10/17 12:19:34;;;;;;;5.97;1.75;;;14.50;89.20;;;;;;5088724;28;20082;-71
2023/10/17 12:22:20;;;;;;;4.30;1.67;;;14.50;88.80;;;;;;5090230;28;20366;-68
2023/10/17 12:25:09;;;;;;;3.65;1.48;;;14.50;88.90;;;;;;5082172;28;20037;-67
2023/10/17 12:27:58;;;;;;;4.65;1.40;;;14.40;87.90;;;;;;5069208;28;20032;-68
2023/10/17 12:30:44;;;;;;;5.38;1.50;;;14.50;87.90;;;;;;5073065;28;20028;-70
2023/10/17 12:33:32;;;;;;;4.40;2.38;;;14.50;88.10;;;;;;5090434;28;20282;-72
2023/10/17 12:36:22;;;;;;;5.53;2.22;;;14.50;88.30;;;;;;5087996;28;20534;-69
2023/10/17 12:39:08;;;;;;;11.80;7.03;;;14.40;87.70;;;;;;5088652;28;20028;-69
2023/10/17 12:41:54;;;;;;;4.60;2.50;;;14.40;87.70;;;;;;5080604;28;20039;-70
2023/10/17 12:44:40;;;;;;;5.40;1.88;;;14.40;87.70;;;;;;5076872;28;20044;-68
2023/10/17 12:47:26;;;;;;;3.03;1.60;;;14.40;87.40;;;;;;5089594;28;20119;-70
2023/10/17 12:50:13;;;;;;;9.60;1.60;;;14.40;87.70;;;;;;5061539;28;20039;-70
2023/10/17 12:52:59;;;;;;;7.50;2.15;;;14.40;87.10;;;;;;5073355;28;20036;-70
2023/10/17 12:55:45;;;;;;;6.22;1.52;;;14.40;86.90;;;;;;5083435;28;20024;-70
2023/10/17 12:58:32;;;;;;;4.03;1.70;;;14.50;86.90;;;;;;5070718;28;20082;-70
2023/10/17 13:01:18;;;;;;;8.18;2.42;;;14.40;87.00;;;;;;5054409;28;20032;-72
2023/10/17 13:04:04;;;;;;;7.63;2.10;;;14.40;87.30;;;;;;5072021;28;20048;-71
2023/10/17 13:06:53;;;;;;;6.50;2.80;;;14.40;87.00;;;;;;5094927;27;20043;-72
2023/10/17 13:09:41;;;;;;;6.45;3.95;;;14.50;87.00;;;;;;5082585;28;20054;-71
2023/10/17 13:12:27;;;;;;;9.85;5.05;;;14.50;87.20;;;;;;5082401;28;20086;-71
2023/10/17 13:15:16;;;;;;;5.40;3.00;;;14.50;86.90;;;;;;5076683;28;20358;-71
2023/10/17 13:18:06;;;;;;;5.78;2.85;;;14.50;86.90;;;;;;5088320;28;20140;-71
2023/10/17 13:20:57;;;;;;;2.80;1.92;;;14.50;87.10;;;;;;5086115;28;20066;-71
2023/10/17 13:23:46;;;;;;;1.80;1.40;;;14.50;86.70;;;;;;5090862;28;20040;-71
2023/10/17 13:26:32;;;;;;;4.90;1.98;;;14.50;86.60;;;;;;5086562;28;20061;-70
2023/10/17 13:29:18;;;;;;;2.63;1.48;;;14.50;86.40;;;;;;5080408;28;20085;-71
2023/10/17 13:32:07;;;;;;;2.78;1.35;;;14.50;86.30;;;;;;5087080;28;20115;-70
2023/10/17 13:34:53;;;;;;;3.65;1.52;;;14.50;86.20;;;;;;5069244;28;20052;-70
2023/10/17 13:37:51;;;;;;;3.58;1.75;;;14.40;86.00;;;;;;5070218;28;21464;-71
2023/10/17 13:40:37;;;;;;;3.22;1.45;;;14.40;86.00;;;;;;5080764;28;20182;-70
2023/10/17 13:43:24;;;;;;;5.53;1.77;;;14.40;86.10;;;;;;5057566;28;20845;-70
2023/10/17 13:46:14;;;;;;;3.03;1.58;;;14.40;86.30;;;;;;5072602;28;20127;-70
2023/10/17 13:49:00;;;;;;;6.25;1.98;;;14.40;86.60;;;;;;5075157;28;20070;-71
2023/10/17 13:51:46;;;;;;;3.05;1.55;;;14.40;86.20;;;;;;5080050;28;20056;-71
2023/10/17 13:54:34;;;;;;;4.38;1.35;;;14.40;86.10;;;;;;5067960;28;20120;-69
2023/10/17 13:57:20;;;;;;;2.25;1.38;;;14.40;85.30;;;;;;5088958;28;20090;-73
2023/10/17 14:00:07;;;;;;;4.30;2.45;;;14.30;84.30;;;;;;5087556;28;20484;-68
2023/10/17 14:02:53;;;;;;;3.92;1.55;;;14.40;84.90;;;;;;5072884;28;20036;-70
2023/10/17 14:05:44;;;;;;;3.88;1.52;;;14.40;83.50;;;;;;5072906;28;20052;-71
2023/10/17 14:08:36;;;;;;;2.08;1.00;;;14.40;83.60;;;;;;5071066;28;20035;-70
2023/10/17 14:11:23;;;;;;;2.92;1.10;;;14.30;83.60;;;;;;5071913;28;20614;-69
2023/10/17 14:14:11;;;;;;;1.73;1.15;;;14.30;82.50;;;;;;5096524;28;20467;-70
2023/10/17 14:16:58;;;;;;;3.28;1.52;;;14.20;82.00;;;;;;5112732;28;20523;-68
2023/10/17 14:19:49;;;;;;;3.85;1.55;;;14.20;82.40;;;;;;5112969;28;20613;-69
2023/10/17 14:22:44;;;;;;;1.83;1.20;;;14.20;82.30;;;;;;5079872;28;20024;-69
2023/10/17 14:26:15;;;;;;;2.72;1.75;;;14.10;81.40;;;;;;5094690;27;20055;-69
2023/10/17 14:28:37;;;;;;;4.00;1.55;;;14.10;82.30;;;;;;5070115;28;20032;-69
2023/10/17 14:31:26;;;;;;;1.98;1.50;;;14.00;82.70;;;;;;5072045;28;20478;-68
2023/10/17 14:34:12;;;;;;;3.20;1.80;;;14.00;82.50;;;;;;5072277;28;20068;-70
2023/10/17 14:36:58;;;;;;;3.00;1.20;;;14.00;82.50;;;;;;5082286;28;20110;-69
2023/10/17 14:39:45;;;;;;;5.85;2.05;;;14.00;82.40;;;;;;5109979;28;20040;-69
2023/10/17 14:42:30;;;;;;;2.22;1.25;;;14.10;82.90;;;;;;5071581;28;20090;-69
2023/10/17 14:45:16;;;;;;;2.35;1.42;;;14.10;82.20;;;;;;5071471;28;20048;-69
2023/10/17 14:48:03;;;;;;;6.50;2.17;;;14.10;83.00;;;;;;5074535;28;20024;-70
2023/10/17 14:50:49;;;;;;;3.38;1.90;;;14.10;83.20;;;;;;5071745;28;20107;-70
2023/10/17 14:53:35;;;;;;;2.50;1.40;;;14.10;82.40;;;;;;5081932;28;20114;-69
2023/10/17 14:56:21;;;;;;;3.65;1.20;;;14.10;82.00;;;;;;5073489;28;20096;-69
2023/10/17 14:59:07;;;;;;;5.65;1.88;;;14.10;82.10;;;;;;5085244;28;20039;-69
2023/10/17 15:01:53;;;;;;;4.10;2.08;;;14.10;82.20;;;;;;5105948;28;20036;-69
2023/10/17 15:04:39;;;;;;;2.45;1.30;;;14.20;82.00;;;;;;5093175;28;20126;-69
2023/10/17 15:07:25;;;;;;;2.15;1.40;;;14.30;81.90;;;;;;5075218;28;20034;-69
2023/10/17 15:10:12;;;;;;;5.07;1.90;;;14.30;81.80;;;;;;5102087;28;20034;-70
2023/10/17 15:12:58;;;;;;;2.70;1.20;;;14.30;82.20;;;;;;5082843;28;20028;-69
2023/10/17 15:15:44;;;;;;;5.22;2.28;;;14.20;81.80;;;;;;5084613;28;20036;-70
2023/10/17 15:18:30;;;;;;;7.38;3.92;;;14.10;81.80;;;;;;5088843;28;20028;-69
2023/10/17 15:21:18;;;;;;;4.18;1.88;;;14.10;82.00;;;;;;5091475;28;20063;-68
2023/10/17 15:24:08;;;;;;;3.22;1.90;;;14.00;81.60;;;;;;5071418;28;20040;-69
2023/10/17 15:26:57;;;;;;;3.70;2.28;;;13.80;81.20;;;;;;5106448;28;20114;-69
2023/10/17 15:29:43;;;;;;;7.32;2.42;;;13.80;81.70;;;;;;5095244;28;20401;-69
2023/10/17 15:32:29;;;;;;;3.40;2.10;;;13.70;81.80;;;;;;5077242;28;20039;-69
2023/10/17 15:35:15;;;;;;;8.70;4.50;;;13.70;82.20;;;;;;5070946;28;20029;-70
2023/10/17 15:38:01;;;;;;;11.90;4.40;;;13.60;83.10;;;;;;5076016;28;20468;-70
2023/10/17 15:40:49;;;;;;;8.95;3.45;;;13.60;83.40;;;;;;5089824;28;20024;-70
2023/10/17 15:43:35;;;;;;;9.77;4.30;;;13.50;83.80;;;;;;5089957;28;20064;-69
2023/10/17 15:46:24;;;;;;;5.90;3.28;;;13.40;84.10;;;;;;5087392;28;20028;-67
2023/10/17 15:49:13;;;;;;;5.05;2.05;;;13.40;84.40;;;;;;5069370;28;20044;-68
2023/10/17 15:51:59;;;;;;;6.28;3.33;;;13.30;84.30;;;;;;5082069;28;20043;-69
2023/10/17 15:54:50;;;;;;;8.15;3.88;;;13.30;84.60;;;;;;5091814;28;20138;-69
2023/10/17 15:57:41;;;;;;;4.00;1.73;;;13.20;84.60;;;;;;5087041;28;20028;-68
2023/10/17 16:00:28;;;;;;;3.55;1.98;;;13.10;83.30;;;;;;5071141;28;20032;-68
2023/10/17 16:03:15;;;;;;;4.40;2.00;;;13.00;84.00;;;;;;5082455;28;20306;-69
2023/10/17 16:06:01;;;;;;;7.55;3.38;;;12.90;83.50;;;;;;5071321;28;20051;-69
2023/10/17 16:08:49;;;;;;;7.95;3.65;;;12.90;84.40;;;;;;5098587;28;20031;-69
2023/10/17 16:11:36;;;;;;;7.30;3.28;;;12.90;85.20;;;;;;5084124;28;20108;-69
2023/10/17 16:14:23;;;;;;;4.82;2.25;;;12.80;85.80;;;;;;5081529;28;20044;-69
2023/10/17 16:17:09;;;;;;;5.50;2.45;;;12.80;86.10;;;;;;5069487;28;20405;-68
2023/10/17 16:19:55;;;;;;;4.07;2.50;;;12.80;86.40;;;;;;5085567;28;20081;-68
2023/10/17 16:22:41;;;;;;;5.07;3.28;;;12.70;86.70;;;;;;5086057;28;20044;-69
2023/10/17 16:25:29;;;;;;;6.65;3.90;;;12.70;87.10;;;;;;5070998;28;20055;-69
2023/10/17 16:28:16;;;;;;;9.18;4.85;;;12.60;87.50;;;;;;5069115;28;20405;-69
2023/10/17 16:31:07;;;;;;;5.95;3.30;;;12.60;87.80;;;;;;5063587;28;20371;-69
2023/10/17 16:33:53;;;;;;;6.97;4.00;;;12.50;87.60;;;;;;5078680;28;20032;-68
2023/10/17 16:36:39;;;;;;;6.68;4.30;;;12.40;87.30;;;;;;5075963;28;20043;-69